sensor_id;sensor_type;location;lat;lon;timestamp;pressure;altitude;pressure_sealevel;temperature;humidity
37486;BME280;23341;50.296;18.960;2023-06-04T00:04:00;49174.75;;;-144.43;59.52
37486;BME280;23341;50.296;18.960;2023-06-04T00:09:06;49170.75;;;-144.43;59.98
37486;BME280;23341;50.296;18.960;2023-06-04T00:14:10;49148.78;;;-144.43;60.46
37486;BME280;23341;50.296;18.960;2023-06-04T00:19:14;49158.78;;;-144.43;61.67
37486;BME280;23341;50.296;18.960;2023-06-04T00:24:21;49172.75;;;-144.43;60.90
37486;BME280;23341;50.296;18.960;2023-06-04T00:29:25;49158.78;;;-144.43;61.86
37486;BME280;23341;50.296;18.960;2023-06-04T00:34:29;49132.78;;;-144.43;62.28
37486;BME280;23341;50.296;18.960;2023-06-04T00:39:35;49158.78;;;-144.43;62.71
37486;BME280;23341;50.296;18.960;2023-06-04T00:44:39;49158.78;;;-144.43;63.31
37486;BME280;23341;50.296;18.960;2023-06-04T00:49:47;49142.78;;;-144.43;63.90
37486;BME280;23341;50.296;18.960;2023-06-04T00:54:53;49118.81;;;-144.43;64.59
37486;BME280;23341;50.296;18.960;2023-06-04T00:59:58;49162.75;;;-144.43;66.26
37486;BME280;23341;50.296;18.960;2023-06-04T01:05:08;49138.78;;;-144.43;66.27
37486;BME280;23341;50.296;18.960;2023-06-04T01:10:16;49130.78;;;-144.43;66.18
37486;BME280;23341;50.296;18.960;2023-06-04T01:15:21;49122.78;;;-144.43;67.04
37486;BME280;23341;50.296;18.960;2023-06-04T01:20:31;49136.78;;;-144.43;67.18
37486;BME280;23341;50.296;18.960;2023-06-04T01:25:39;49116.81;;;-144.43;67.14
37486;BME280;23341;50.296;18.960;2023-06-04T01:30:47;49154.78;;;-144.43;68.00
37486;BME280;23341;50.296;18.960;2023-06-04T01:35:54;49128.78;;;-144.43;68.13
37486;BME280;23341;50.296;18.960;2023-06-04T01:41:00;49116.81;;;-144.43;68.55
37486;BME280;23341;50.296;18.960;2023-06-04T01:46:05;49134.78;;;-144.43;69.22
37486;BME280;23341;50.296;18.960;2023-06-04T01:51:09;49126.78;;;-144.43;69.55
37486;BME280;23341;50.296;18.960;2023-06-04T01:56:16;49122.78;;;-144.43;69.64
37486;BME280;23341;50.296;18.960;2023-06-04T02:01:20;49154.78;;;-144.43;69.77
37486;BME280;23341;50.296;18.960;2023-06-04T02:06:25;49108.81;;;-144.43;70.38
37486;BME280;23341;50.296;18.960;2023-06-04T02:11:35;49130.78;;;-144.43;70.39
37486;BME280;23341;50.296;18.960;2023-06-04T02:16:39;49162.75;;;-144.43;70.03
37486;BME280;23341;50.296;18.960;2023-06-04T02:21:44;49152.78;;;-144.43;70.36
37486;BME280;23341;50.296;18.960;2023-06-04T02:26:49;49116.81;;;-144.43;70.82
37486;BME280;23341;50.296;18.960;2023-06-04T02:31:54;49126.78;;;-144.43;70.75
37486;BME280;23341;50.296;18.960;2023-06-04T02:36:59;49134.78;;;-144.43;71.42
37486;BME280;23341;50.296;18.960;2023-06-04T02:42:06;49138.78;;;-144.43;70.22
37486;BME280;23341;50.296;18.960;2023-06-04T02:47:10;49150.78;;;-144.43;70.17
37486;BME280;23341;50.296;18.960;2023-06-04T02:52:14;49150.78;;;-144.43;70.31
37486;BME280;23341;50.296;18.960;2023-06-04T02:57:20;49154.78;;;-144.43;70.49
37486;BME280;23341;50.296;18.960;2023-06-04T03:02:25;49126.78;;;-144.43;71.16
37486;BME280;23341;50.296;18.960;2023-06-04T03:07:29;49136.78;;;-144.43;70.96
37486;BME280;23341;50.296;18.960;2023-06-04T03:12:35;49134.78;;;-144.43;71.98
37486;BME280;23341;50.296;18.960;2023-06-04T03:17:40;49156.78;;;-144.43;71.83
37486;BME280;23341;50.296;18.960;2023-06-04T03:22:45;49168.75;;;-144.43;72.09
37486;BME280;23341;50.296;18.960;2023-06-04T03:27:51;49168.75;;;-144.43;71.60
37486;BME280;23341;50.296;18.960;2023-06-04T03:32:55;49148.78;;;-144.43;71.74
37486;BME280;23341;50.296;18.960;2023-06-04T03:38:00;49166.75;;;-144.43;72.66
37486;BME280;23341;50.296;18.960;2023-06-04T03:43:08;49200.75;;;-144.43;71.76
37486;BME280;23341;50.296;18.960;2023-06-04T03:48:14;49200.75;;;-144.43;72.38
37486;BME280;23341;50.296;18.960;2023-06-04T03:53:19;49194.75;;;-144.43;71.78
37486;BME280;23341;50.296;18.960;2023-06-04T03:58:26;49186.75;;;-144.43;72.58
37486;BME280;23341;50.296;18.960;2023-06-04T04:03:33;49208.72;;;-144.43;72.24
37486;BME280;23341;50.296;18.960;2023-06-04T04:08:40;49226.72;;;-144.43;71.52
37486;BME280;23341;50.296;18.960;2023-06-04T04:13:50;49234.72;;;-144.43;70.15
37486;BME280;23341;50.296;18.960;2023-06-04T04:18:57;49218.72;;;-144.43;69.09
37486;BME280;23341;50.296;18.960;2023-06-04T04:24:02;49194.75;;;-144.43;68.92
37486;BME280;23341;50.296;18.960;2023-06-04T04:29:08;49214.72;;;-144.43;68.27
37486;BME280;23341;50.296;18.960;2023-06-04T04:34:14;49252.69;;;-144.43;67.15
37486;BME280;23341;50.296;18.960;2023-06-04T04:39:20;49240.72;;;-144.43;66.08
37486;BME280;23341;50.296;18.960;2023-06-04T04:44:26;49248.69;;;-144.43;66.13
37486;BME280;23341;50.296;18.960;2023-06-04T04:49:31;49296.66;;;-144.43;65.76
37486;BME280;23341;50.296;18.960;2023-06-04T04:54:35;49286.69;;;-144.43;64.89
37486;BME280;23341;50.296;18.960;2023-06-04T04:59:42;49278.69;;;-144.43;64.00
37486;BME280;23341;50.296;18.960;2023-06-04T05:04:47;49284.69;;;-144.43;62.68
37486;BME280;23341;50.296;18.960;2023-06-04T05:09:52;49322.66;;;-144.43;62.86
37486;BME280;23341;50.296;18.960;2023-06-04T05:14:59;49322.66;;;-144.43;62.45
37486;BME280;23341;50.296;18.960;2023-06-04T05:20:04;49378.63;;;-144.43;60.11
37486;BME280;23341;50.296;18.960;2023-06-04T05:25:12;49390.59;;;-144.43;60.82
37486;BME280;23341;50.296;18.960;2023-06-04T05:30:18;49394.59;;;-144.43;58.42
37486;BME280;23341;50.296;18.960;2023-06-04T05:35:22;49408.59;;;-144.43;56.37
37486;BME280;23341;50.296;18.960;2023-06-04T05:40:27;49410.59;;;-144.43;54.82
37486;BME280;23341;50.296;18.960;2023-06-04T05:45:33;49448.56;;;-144.43;52.94
37486;BME280;23341;50.296;18.960;2023-06-04T05:50:38;49630.44;;;-144.43;46.96
37486;BME280;23341;50.296;18.960;2023-06-04T05:55:42;50178.16;;;-144.43;39.14
37486;BME280;23341;50.296;18.960;2023-06-04T06:00:49;50390.06;;;-144.43;34.84
37486;BME280;23341;50.296;18.960;2023-06-04T06:05:54;50456.03;;;-144.43;33.70
37486;BME280;23341;50.296;18.960;2023-06-04T06:11:00;50470.03;;;-144.43;33.45
37486;BME280;23341;50.296;18.960;2023-06-04T06:16:14;50498.00;;;-144.43;32.68
37486;BME280;23341;50.296;18.960;2023-06-04T06:21:20;50621.97;;;-144.43;32.46
37486;BME280;23341;50.296;18.960;2023-06-04T06:26:25;50558.00;;;-144.43;31.66
37486;BME280;23341;50.296;18.960;2023-06-04T06:31:34;50607.97;;;-144.43;31.42
37486;BME280;23341;50.296;18.960;2023-06-04T06:36:38;50685.94;;;-144.43;31.96
37486;BME280;23341;50.296;18.960;2023-06-04T06:41:42;51467.75;;;-144.43;29.10
37486;BME280;23341;50.296;18.960;2023-06-04T06:46:54;51401.75;;;-144.43;28.62
37486;BME280;23341;50.296;18.960;2023-06-04T06:51:58;51431.75;;;-144.43;28.51
37486;BME280;23341;50.296;18.960;2023-06-04T06:57:03;51387.75;;;-144.43;28.58
37486;BME280;23341;50.296;18.960;2023-06-04T07:02:13;51511.75;;;-144.43;28.24
37486;BME280;23341;50.296;18.960;2023-06-04T07:07:17;51373.75;;;-144.43;28.22
37486;BME280;23341;50.296;18.960;2023-06-04T07:12:22;51953.69;;;-144.43;27.07
37486;BME280;23341;50.296;18.960;2023-06-04T07:17:27;52085.69;;;-144.43;26.45
37486;BME280;23341;50.296;18.960;2023-06-04T07:22:32;52465.72;;;-144.43;25.38
37486;BME280;23341;50.296;18.960;2023-06-04T07:27:36;52647.75;;;-144.43;24.58
37486;BME280;23341;50.296;18.960;2023-06-04T07:32:46;52269.72;;;-144.43;25.27
37486;BME280;23341;50.296;18.960;2023-06-04T07:37:50;52897.78;;;-144.43;24.17
37486;BME280;23341;50.296;18.960;2023-06-04T07:42:55;52677.75;;;-144.43;24.09
37486;BME280;23341;50.296;18.960;2023-06-04T07:48:01;52485.72;;;-144.43;24.05
37486;BME280;23341;50.296;18.960;2023-06-04T07:53:06;52953.81;;;-144.43;23.16
37486;BME280;23341;50.296;18.960;2023-06-04T07:58:10;52107.69;;;-144.43;23.86
37486;BME280;23341;50.296;18.960;2023-06-04T08:03:16;51783.72;;;-144.43;24.53
37486;BME280;23341;50.296;18.960;2023-06-04T08:08:21;52017.69;;;-144.43;23.98
37486;BME280;23341;50.296;18.960;2023-06-04T08:13:25;51943.72;;;-144.43;23.91
37486;BME280;23341;50.296;18.960;2023-06-04T08:18:32;51837.72;;;-144.43;24.05
37486;BME280;23341;50.296;18.960;2023-06-04T08:23:36;52103.69;;;-144.43;22.87
37486;BME280;23341;50.296;18.960;2023-06-04T08:28:40;52753.75;;;-144.43;22.79
37486;BME280;23341;50.296;18.960;2023-06-04T08:33:46;51783.72;;;-144.43;24.05
37486;BME280;23341;50.296;18.960;2023-06-04T08:38:51;52581.75;;;-144.43;23.42
37486;BME280;23341;50.296;18.960;2023-06-04T08:43:56;53766.06;;;-144.43;21.79
37486;BME280;23341;50.296;18.960;2023-06-04T08:49:06;54198.28;;;-144.43;21.48
37486;BME280;23341;50.296;18.960;2023-06-04T08:54:16;53708.03;;;-144.43;21.21
37486;BME280;23341;50.296;18.960;2023-06-04T08:59:20;53117.84;;;-144.43;22.19
37486;BME280;23341;50.296;18.960;2023-06-04T09:04:26;53315.91;;;-144.43;21.65
37486;BME280;23341;50.296;18.960;2023-06-04T09:09:31;52709.75;;;-144.43;22.51
37486;BME280;23341;50.296;18.960;2023-06-04T09:14:36;52349.72;;;-144.43;23.07
37486;BME280;23341;50.296;18.960;2023-06-04T09:19:42;51931.69;;;-144.43;23.30
37486;BME280;23341;50.296;18.960;2023-06-04T09:24:47;51927.72;;;-144.43;23.33
37486;BME280;23341;50.296;18.960;2023-06-04T09:29:54;51593.72;;;-144.43;24.14
37486;BME280;23341;50.296;18.960;2023-06-04T09:35:10;51269.78;;;-144.43;24.86
37486;BME280;23341;50.296;18.960;2023-06-04T09:40:15;51433.75;;;-144.43;25.05
37486;BME280;23341;50.296;18.960;2023-06-04T09:45:27;51703.72;;;-144.43;25.42
37486;BME280;23341;50.296;18.960;2023-06-04T09:50:34;51689.72;;;-144.43;24.30
37486;BME280;23341;50.296;18.960;2023-06-04T09:55:42;51153.81;;;-144.43;25.61
37486;BME280;23341;50.296;18.960;2023-06-04T10:00:47;50977.84;;;-144.43;26.40
37486;BME280;23341;50.296;18.960;2023-06-04T10:05:53;50755.91;;;-144.43;26.95
37486;BME280;23341;50.296;18.960;2023-06-04T10:10:59;50861.88;;;-144.43;26.32
37486;BME280;23341;50.296;18.960;2023-06-04T10:16:05;51005.84;;;-144.43;26.34
37486;BME280;23341;50.296;18.960;2023-06-04T10:21:26;51063.81;;;-144.43;26.64
37486;BME280;23341;50.296;18.960;2023-06-04T10:26:32;51171.81;;;-144.43;26.38
37486;BME280;23341;50.296;18.960;2023-06-04T10:31:37;51245.78;;;-144.43;25.74
37486;BME280;23341;50.296;18.960;2023-06-04T10:36:46;51151.81;;;-144.43;26.30
37486;BME280;23341;50.296;18.960;2023-06-04T10:41:58;51265.78;;;-144.43;25.69
37486;BME280;23341;50.296;18.960;2023-06-04T10:47:02;51221.78;;;-144.43;25.61
37486;BME280;23341;50.296;18.960;2023-06-04T10:52:11;51451.75;;;-144.43;25.79
37486;BME280;23341;50.296;18.960;2023-06-04T10:57:17;51433.75;;;-144.43;25.81
37486;BME280;23341;50.296;18.960;2023-06-04T11:02:22;51465.75;;;-144.43;26.01
37486;BME280;23341;50.296;18.960;2023-06-04T11:07:28;51247.78;;;-144.43;26.12
37486;BME280;23341;50.296;18.960;2023-06-04T11:12:41;51185.81;;;-144.43;26.44
37486;BME280;23341;50.296;18.960;2023-06-04T11:17:50;51085.81;;;-144.43;26.27
37486;BME280;23341;50.296;18.960;2023-06-04T11:22:57;51149.81;;;-144.43;26.41
37486;BME280;23341;50.296;18.960;2023-06-04T11:28:02;51445.75;;;-144.43;25.77
37486;BME280;23341;50.296;18.960;2023-06-04T11:33:07;51619.72;;;-144.43;25.68
37486;BME280;23341;50.296;18.960;2023-06-04T11:38:13;51659.72;;;-144.43;25.36
37486;BME280;23341;50.296;18.960;2023-06-04T11:43:17;51701.72;;;-144.43;25.30
37486;BME280;23341;50.296;18.960;2023-06-04T11:48:21;51609.72;;;-144.43;25.62
37486;BME280;23341;50.296;18.960;2023-06-04T11:53:29;51781.72;;;-144.43;25.34
37486;BME280;23341;50.296;18.960;2023-06-04T11:58:34;51737.72;;;-144.43;25.21
37486;BME280;23341;50.296;18.960;2023-06-04T12:03:40;51667.72;;;-144.43;24.54
37486;BME280;23341;50.296;18.960;2023-06-04T12:08:51;51871.72;;;-144.43;25.22
37486;BME280;23341;50.296;18.960;2023-06-04T12:13:56;51831.72;;;-144.43;24.44
37486;BME280;23341;50.296;18.960;2023-06-04T12:19:05;51771.72;;;-144.43;24.49
37486;BME280;23341;50.296;18.960;2023-06-04T12:24:12;51563.72;;;-144.43;25.42
37486;BME280;23341;50.296;18.960;2023-06-04T12:29:18;52193.72;;;-144.43;23.92
37486;BME280;23341;50.296;18.960;2023-06-04T12:34:23;52261.72;;;-144.43;23.97
37486;BME280;23341;50.296;18.960;2023-06-04T12:39:29;53237.88;;;-144.43;23.13
37486;BME280;23341;50.296;18.960;2023-06-04T12:44:33;53443.94;;;-144.43;21.66
37486;BME280;23341;50.296;18.960;2023-06-04T12:49:39;53147.84;;;-144.43;22.46
37486;BME280;23341;50.296;18.960;2023-06-04T12:54:44;53674.03;;;-144.43;21.76
37486;BME280;23341;50.296;18.960;2023-06-04T12:59:49;53299.91;;;-144.43;21.78
37486;BME280;23341;50.296;18.960;2023-06-04T13:04:53;52287.72;;;-144.43;22.29
37486;BME280;23341;50.296;18.960;2023-06-04T13:10:00;52653.75;;;-144.43;21.86
37486;BME280;23341;50.296;18.960;2023-06-04T13:15:05;52989.81;;;-144.43;21.63
37486;BME280;23341;50.296;18.960;2023-06-04T13:20:10;54504.47;;;-144.43;20.41
37486;BME280;23341;50.296;18.960;2023-06-04T13:25:17;54734.59;;;-144.43;20.58
37486;BME280;23341;50.296;18.960;2023-06-04T13:30:21;55226.97;;;-144.43;20.16
37486;BME280;23341;50.296;18.960;2023-06-04T13:35:25;54962.75;;;-144.43;20.31
37486;BME280;23341;50.296;18.960;2023-06-04T13:40:31;54720.59;;;-144.43;20.51
37486;BME280;23341;50.296;18.960;2023-06-04T13:45:37;54954.75;;;-144.43;20.30
37486;BME280;23341;50.296;18.960;2023-06-04T13:50:42;53722.06;;;-144.43;20.71
37486;BME280;23341;50.296;18.960;2023-06-04T13:55:48;54506.47;;;-144.43;20.39
37486;BME280;23341;50.296;18.960;2023-06-04T14:01:00;54222.28;;;-144.43;20.48
37486;BME280;23341;50.296;18.960;2023-06-04T14:06:06;53770.06;;;-144.43;20.80
37486;BME280;23341;50.296;18.960;2023-06-04T14:11:13;53582.00;;;-144.43;20.56
37486;BME280;23341;50.296;18.960;2023-06-04T14:16:19;53568.00;;;-144.43;21.10
37486;BME280;23341;50.296;18.960;2023-06-04T14:21:23;53794.09;;;-144.43;21.38
37486;BME280;23341;50.296;18.960;2023-06-04T14:26:29;53449.94;;;-144.43;22.37
37486;BME280;23341;50.296;18.960;2023-06-04T14:31:33;52849.78;;;-144.43;22.08
37486;BME280;23341;50.296;18.960;2023-06-04T14:36:37;52773.75;;;-144.43;22.92
37486;BME280;23341;50.296;18.960;2023-06-04T14:41:43;53217.88;;;-144.43;22.40
37486;BME280;23341;50.296;18.960;2023-06-04T14:46:49;53157.84;;;-144.43;22.54
37486;BME280;23341;50.296;18.960;2023-06-04T14:51:54;53401.94;;;-144.43;22.34
37486;BME280;23341;50.296;18.960;2023-06-04T14:57:00;53149.84;;;-144.43;22.48
37486;BME280;23341;50.296;18.960;2023-06-04T15:02:05;53225.88;;;-144.43;22.00
37486;BME280;23341;50.296;18.960;2023-06-04T15:07:09;52801.78;;;-144.43;22.54
37486;BME280;23341;50.296;18.960;2023-06-04T15:12:16;52285.72;;;-144.43;22.75
37486;BME280;23341;50.296;18.960;2023-06-04T15:17:22;52221.72;;;-144.43;23.04
37486;BME280;23341;50.296;18.960;2023-06-04T15:22:27;52563.72;;;-144.43;22.21
37486;BME280;23341;50.296;18.960;2023-06-04T15:27:33;52483.72;;;-144.43;23.03
37486;BME280;23341;50.296;18.960;2023-06-04T15:32:37;52589.75;;;-144.43;22.77
37486;BME280;23341;50.296;18.960;2023-06-04T15:37:41;52621.75;;;-144.43;22.82
37486;BME280;23341;50.296;18.960;2023-06-04T15:42:47;52301.72;;;-144.43;23.02
37486;BME280;23341;50.296;18.960;2023-06-04T15:47:52;52203.69;;;-144.43;23.31
37486;BME280;23341;50.296;18.960;2023-06-04T15:52:56;52333.72;;;-144.43;23.20
37486;BME280;23341;50.296;18.960;2023-06-04T15:58:02;52597.75;;;-144.43;23.15
37486;BME280;23341;50.296;18.960;2023-06-04T16:03:06;52083.69;;;-144.43;23.28
37486;BME280;23341;50.296;18.960;2023-06-04T16:08:11;51575.72;;;-144.43;24.12
37486;BME280;23341;50.296;18.960;2023-06-04T16:13:17;51845.72;;;-144.43;24.32
37486;BME280;23341;50.296;18.960;2023-06-04T16:18:22;51929.72;;;-144.43;23.79
37486;BME280;23341;50.296;18.960;2023-06-04T16:23:26;52117.69;;;-144.43;24.13
37486;BME280;23341;50.296;18.960;2023-06-04T16:28:32;52029.69;;;-144.43;23.14
37486;BME280;23341;50.296;18.960;2023-06-04T16:33:36;51869.72;;;-144.43;24.13
37486;BME280;23341;50.296;18.960;2023-06-04T16:38:41;51803.72;;;-144.43;24.32
37486;BME280;23341;50.296;18.960;2023-06-04T16:43:46;51301.78;;;-144.43;25.08
37486;BME280;23341;50.296;18.960;2023-06-04T16:48:51;51033.84;;;-144.43;25.95
37486;BME280;23341;50.296;18.960;2023-06-04T16:53:56;50813.91;;;-144.43;26.62
37486;BME280;23341;50.296;18.960;2023-06-04T16:59:01;50621.97;;;-144.43;27.66
37486;BME280;23341;50.296;18.960;2023-06-04T17:04:06;50544.00;;;-144.43;27.44
37486;BME280;23341;50.296;18.960;2023-06-04T17:09:10;50498.00;;;-144.43;27.66
37486;BME280;23341;50.296;18.960;2023-06-04T17:14:16;50478.03;;;-144.43;28.48
37486;BME280;23341;50.296;18.960;2023-06-04T17:19:21;50454.03;;;-144.43;29.25
37486;BME280;23341;50.296;18.960;2023-06-04T17:24:25;50366.06;;;-144.43;29.36
37486;BME280;23341;50.296;18.960;2023-06-04T17:29:31;50370.06;;;-144.43;29.41
37486;BME280;23341;50.296;18.960;2023-06-04T17:34:36;50368.06;;;-144.43;29.67
37486;BME280;23341;50.296;18.960;2023-06-04T17:39:41;50298.09;;;-144.43;30.34
37486;BME280;23341;50.296;18.960;2023-06-04T17:44:47;50304.09;;;-144.43;30.46
37486;BME280;23341;50.296;18.960;2023-06-04T17:49:51;50272.09;;;-144.43;30.27
37486;BME280;23341;50.296;18.960;2023-06-04T17:54:55;50244.13;;;-144.43;30.59
37486;BME280;23341;50.296;18.960;2023-06-04T18:00:02;50206.13;;;-144.43;30.97
37486;BME280;23341;50.296;18.960;2023-06-04T18:05:14;50198.13;;;-144.43;31.66
37486;BME280;23341;50.296;18.960;2023-06-04T18:10:20;50166.16;;;-144.43;31.73
37486;BME280;23341;50.296;18.960;2023-06-04T18:15:26;50138.16;;;-144.43;31.78
37486;BME280;23341;50.296;18.960;2023-06-04T18:20:31;50086.19;;;-144.43;32.16
37486;BME280;23341;50.296;18.960;2023-06-04T18:25:36;50100.19;;;-144.43;33.09
37486;BME280;23341;50.296;18.960;2023-06-04T18:30:42;50026.22;;;-144.43;34.04
37486;BME280;23341;50.296;18.960;2023-06-04T18:35:46;50028.22;;;-144.43;33.61
37486;BME280;23341;50.296;18.960;2023-06-04T18:40:51;49982.25;;;-144.43;33.91
37486;BME280;23341;50.296;18.960;2023-06-04T18:45:58;49982.25;;;-144.43;34.44
37486;BME280;23341;50.296;18.960;2023-06-04T18:51:03;49962.25;;;-144.43;34.35
37486;BME280;23341;50.296;18.960;2023-06-04T18:56:09;49934.28;;;-144.43;34.95
37486;BME280;23341;50.296;18.960;2023-06-04T19:01:14;49918.28;;;-144.43;35.41
37486;BME280;23341;50.296;18.960;2023-06-04T19:06:19;49896.28;;;-144.43;35.55
37486;BME280;23341;50.296;18.960;2023-06-04T19:11:23;49854.31;;;-144.43;35.76
37486;BME280;23341;50.296;18.960;2023-06-04T19:16:31;49812.34;;;-144.43;36.16
37486;BME280;23341;50.296;18.960;2023-06-04T19:21:35;49804.34;;;-144.43;36.62
37486;BME280;23341;50.296;18.960;2023-06-04T19:26:40;49776.38;;;-144.43;37.16
37486;BME280;23341;50.296;18.960;2023-06-04T19:31:47;49778.38;;;-144.43;37.33
37486;BME280;23341;50.296;18.960;2023-06-04T19:36:52;49760.38;;;-144.43;37.57
37486;BME280;23341;50.296;18.960;2023-06-04T19:41:56;49738.38;;;-144.43;37.49
37486;BME280;23341;50.296;18.960;2023-06-04T19:47:02;49754.38;;;-144.43;37.38
37486;BME280;23341;50.296;18.960;2023-06-04T19:52:07;49714.41;;;-144.43;37.87
37486;BME280;23341;50.296;18.960;2023-06-04T19:57:12;49718.41;;;-144.43;38.40
37486;BME280;23341;50.296;18.960;2023-06-04T20:02:20;49678.41;;;-144.43;38.49
37486;BME280;23341;50.296;18.960;2023-06-04T20:07:24;49678.41;;;-144.43;38.96
37486;BME280;23341;50.296;18.960;2023-06-04T20:12:31;49642.44;;;-144.43;39.25
37486;BME280;23341;50.296;18.960;2023-06-04T20:17:37;49652.44;;;-144.43;39.43
37486;BME280;23341;50.296;18.960;2023-06-04T20:22:42;49630.44;;;-144.43;40.13
37486;BME280;23341;50.296;18.960;2023-06-04T20:27:47;49614.47;;;-144.43;40.23
37486;BME280;23341;50.296;18.960;2023-06-04T20:32:53;49634.44;;;-144.43;40.83
37486;BME280;23341;50.296;18.960;2023-06-04T20:37:58;49598.47;;;-144.43;40.63
37486;BME280;23341;50.296;18.960;2023-06-04T20:43:03;49618.47;;;-144.43;41.71
37486;BME280;23341;50.296;18.960;2023-06-04T20:48:09;49584.47;;;-144.43;41.62
37486;BME280;23341;50.296;18.960;2023-06-04T20:53:14;49582.47;;;-144.43;41.68
37486;BME280;23341;50.296;18.960;2023-06-04T20:58:19;49594.47;;;-144.43;41.80
37486;BME280;23341;50.296;18.960;2023-06-04T21:03:26;49542.50;;;-144.43;42.26
37486;BME280;23341;50.296;18.960;2023-06-04T21:08:30;49528.50;;;-144.43;43.00
37486;BME280;23341;50.296;18.960;2023-06-04T21:13:34;49536.50;;;-144.43;43.67
37486;BME280;23341;50.296;18.960;2023-06-04T21:18:40;49514.53;;;-144.43;43.16
37486;BME280;23341;50.296;18.960;2023-06-04T21:23:45;49514.53;;;-144.43;43.13
37486;BME280;23341;50.296;18.960;2023-06-04T21:28:49;49508.53;;;-144.43;43.97
37486;BME280;23341;50.296;18.960;2023-06-04T21:33:55;49496.53;;;-144.43;44.07
37486;BME280;23341;50.296;18.960;2023-06-04T21:39:00;49496.53;;;-144.43;44.85
37486;BME280;23341;50.296;18.960;2023-06-04T21:44:04;49466.56;;;-144.43;45.72
37486;BME280;23341;50.296;18.960;2023-06-04T21:49:10;49446.56;;;-144.43;46.23
37486;BME280;23341;50.296;18.960;2023-06-04T21:54:15;49466.56;;;-144.43;46.99
37486;BME280;23341;50.296;18.960;2023-06-04T21:59:19;49464.56;;;-144.43;47.08
37486;BME280;23341;50.296;18.960;2023-06-04T22:04:25;49468.56;;;-144.43;47.21
37486;BME280;23341;50.296;18.960;2023-06-04T22:09:29;49442.56;;;-144.43;48.58
37486;BME280;23341;50.296;18.960;2023-06-04T22:14:34;49454.56;;;-144.43;48.33
37486;BME280;23341;50.296;18.960;2023-06-04T22:19:42;49454.56;;;-144.43;49.48
37486;BME280;23341;50.296;18.960;2023-06-04T22:24:46;49408.59;;;-144.43;49.90
37486;BME280;23341;50.296;18.960;2023-06-04T22:29:51;49432.56;;;-144.43;50.08
37486;BME280;23341;50.296;18.960;2023-06-04T22:34:57;49422.59;;;-144.43;50.13
37486;BME280;23341;50.296;18.960;2023-06-04T22:40:01;49414.59;;;-144.43;50.57
37486;BME280;23341;50.296;18.960;2023-06-04T22:45:07;49414.59;;;-144.43;50.54
37486;BME280;23341;50.296;18.960;2023-06-04T22:50:14;49392.59;;;-144.43;49.62
37486;BME280;23341;50.296;18.960;2023-06-04T22:55:18;49390.59;;;-144.43;49.68
37486;BME280;23341;50.296;18.960;2023-06-04T23:00:23;49400.59;;;-144.43;49.95
37486;BME280;23341;50.296;18.960;2023-06-04T23:05:29;49388.59;;;-144.43;50.40
37486;BME280;23341;50.296;18.960;2023-06-04T23:10:34;49380.63;;;-144.43;50.49
37486;BME280;23341;50.296;18.960;2023-06-04T23:15:39;49386.59;;;-144.43;50.56
37486;BME280;23341;50.296;18.960;2023-06-04T23:20:45;49360.63;;;-144.43;50.61
37486;BME280;23341;50.296;18.960;2023-06-04T23:25:49;49350.63;;;-144.43;50.70
37486;BME280;23341;50.296;18.960;2023-06-04T23:30:53;49318.66;;;-144.43;50.66
37486;BME280;23341;50.296;18.960;2023-06-04T23:35:59;49342.63;;;-144.43;52.31
37486;BME280;23341;50.296;18.960;2023-06-04T23:41:04;49368.63;;;-144.43;53.85
37486;BME280;23341;50.296;18.960;2023-06-04T23:46:08;49360.63;;;-144.43;53.88
37486;BME280;23341;50.296;18.960;2023-06-04T23:51:14;49344.63;;;-144.43;54.78
37486;BME280;23341;50.296;18.960;2023-06-04T23:56:19;49332.66;;;-144.43;55.29
